createdAt,value
2022-11-28T00:03:01.241Z,24.30
2022-11-28T00:08:04.806Z,24.80
2022-11-28T00:13:07.544Z,22.23
2022-11-28T00:18:11.397Z,20.63
2022-11-28T00:23:14.290Z,25.40
2022-11-28T00:28:17.148Z,31.20
2022-11-28T00:33:20.146Z,21.23
2022-11-28T00:38:23.019Z,20.83
2022-11-28T00:43:25.987Z,24.03
2022-11-28T00:48:29.410Z,26.37
2022-11-28T00:53:33.055Z,29.97
2022-11-28T00:58:36.892Z,26.13
2022-11-28T01:03:41.918Z,27.33
2022-11-28T01:08:44.740Z,23.60
2022-11-28T01:13:48.536Z,30.53
2022-11-28T01:18:51.772Z,28.67
2022-11-28T01:23:55.159Z,26.43
2022-11-28T01:28:59.862Z,23.93
2022-11-28T01:34:02.831Z,26.30
2022-11-28T01:39:05.876Z,29.57
2022-11-28T01:44:14.761Z,23.37
2022-11-28T01:49:25.617Z,34.17
2022-11-28T01:54:31.353Z,26.93
2022-11-28T01:59:44.335Z,28.67
2022-11-28T02:04:47.734Z,27.80
2022-11-28T02:09:50.528Z,29.90
2022-11-28T02:15:12.932Z,19.47
2022-11-28T02:21:05.879Z,29.93
2022-11-28T02:26:39.310Z,33.22
2022-11-28T02:32:09.862Z,29.17
2022-11-28T02:37:36.694Z,26.47
2022-11-28T02:43:10.438Z,26.70
2022-11-28T02:48:37.239Z,31.93
2022-11-28T02:53:43.800Z,21.97
2022-11-28T02:58:46.664Z,30.10
2022-11-28T03:04:01.353Z,25.53
2022-11-28T03:09:46.244Z,20.17
2022-11-28T03:15:03.067Z,25.97
2022-11-28T03:20:34.547Z,29.27
2022-11-28T03:26:05.739Z,26.20
2022-11-28T03:31:15.799Z,35.63
2022-11-28T03:36:31.580Z,23.00
2022-11-28T03:41:43.547Z,33.57
2022-11-28T03:46:49.995Z,35.57
2022-11-28T03:52:01.612Z,27.73
2022-11-28T03:57:15.229Z,23.73
2022-11-28T04:02:51.353Z,28.53
2022-11-28T04:08:14.371Z,22.67
2022-11-28T04:13:55.984Z,21.20
2022-11-28T04:19:31.774Z,18.30
2022-11-28T04:24:48.003Z,21.30
2022-11-28T04:29:57.074Z,13.80
2022-11-28T04:35:13.752Z,21.83
2022-11-28T04:40:18.365Z,18.80
2022-11-28T04:45:29.525Z,22.70
2022-11-28T04:50:49.039Z,19.90
2022-11-28T04:56:01.748Z,25.00
2022-11-28T05:01:10.964Z,22.27
2022-11-28T05:06:34.076Z,19.73
2022-11-28T05:11:37.272Z,22.40
2022-11-28T05:16:40.157Z,16.90
2022-11-28T05:21:43.412Z,15.13
2022-11-28T05:26:46.357Z,21.43
2022-11-28T05:31:49.262Z,29.00
2022-11-28T05:36:52.273Z,25.70
2022-11-28T05:41:56.447Z,28.53
2022-11-28T05:46:59.849Z,32.10
2022-11-28T05:52:02.719Z,31.60
2022-11-28T05:57:08.827Z,31.33
2022-11-28T06:02:11.646Z,28.30
2022-11-28T06:07:14.737Z,32.67
2022-11-28T06:12:17.615Z,32.87
2022-11-28T06:17:20.515Z,30.37
2022-11-28T06:22:23.344Z,33.63
2022-11-28T06:27:26.332Z,35.17
2022-11-28T06:32:29.195Z,35.47
2022-11-28T06:37:32.090Z,42.23
2022-11-28T06:42:36.676Z,42.33
2022-11-28T06:47:39.713Z,34.57
2022-11-28T06:52:42.710Z,42.17
2022-11-28T06:57:46.199Z,38.37
2022-11-28T07:02:49.290Z,41.70
2022-11-28T07:07:54.512Z,46.63
2022-11-28T07:13:05.198Z,40.33
2022-11-28T07:18:08.738Z,30.63
2022-11-28T07:23:12.117Z,38.17
2022-11-28T07:28:14.911Z,37.23
2022-11-28T07:33:18.827Z,42.87
2022-11-28T07:38:21.906Z,38.93
2022-11-28T07:43:24.807Z,33.77
2022-11-28T07:48:27.932Z,30.87
2022-11-28T07:53:30.886Z,32.97
2022-11-28T07:58:35.980Z,38.20
2022-11-28T08:03:39.244Z,37.70
2022-11-28T08:08:42.328Z,33.63
2022-11-28T08:13:45.676Z,34.57
2022-11-28T08:18:50.231Z,33.13
2022-11-28T08:23:55.008Z,34.80
2022-11-28T08:28:59.372Z,33.80
2022-11-28T08:34:06.124Z,29.47
2022-11-28T08:39:23.428Z,30.63
2022-11-28T08:44:30.230Z,25.03
2022-11-28T08:49:33.896Z,27.23
2022-11-28T08:54:36.875Z,28.23
2022-11-28T08:59:40.180Z,25.80
2022-11-28T09:04:43.350Z,24.33
2022-11-28T09:09:46.490Z,21.03
2022-11-28T09:14:49.260Z,20.17
2022-11-28T09:19:52.103Z,19.30
2022-11-28T09:24:54.964Z,19.43
2022-11-28T09:29:57.679Z,19.53
2022-11-28T09:35:00.619Z,28.33
2022-11-28T09:40:13.183Z,18.87
2022-11-28T09:45:20.455Z,18.47
2022-11-28T09:50:28.374Z,18.93
2022-11-28T09:55:59.187Z,20.70
2022-11-28T10:01:11.137Z,24.57
2022-11-28T10:07:05.935Z,21.17
2022-11-28T10:12:40.290Z,23.33
2022-11-28T10:18:19.837Z,20.27
2022-11-28T10:23:34.030Z,22.47
2022-11-28T10:28:42.386Z,23.37
2022-11-28T10:33:50.488Z,23.13
2022-11-28T10:38:53.461Z,19.73
2022-11-28T10:44:21.511Z,22.13
2022-11-28T10:49:53.995Z,21.17
2022-11-28T10:55:33.729Z,20.25
2022-11-28T11:00:38.159Z,21.50
2022-11-28T11:05:41.496Z,23.53
2022-11-28T11:11:04.792Z,23.00
2022-11-28T11:16:12.236Z,24.03
2022-11-28T11:21:23.895Z,21.70
2022-11-28T11:31:44.899Z,21.47
2022-11-28T11:36:48.319Z,25.67
2022-11-28T11:42:01.613Z,23.03
2022-11-28T11:47:08.907Z,24.63
2022-11-28T11:52:27.691Z,23.43
2022-11-28T11:57:43.792Z,22.70
2022-11-28T12:03:03.326Z,23.00
2022-11-28T12:09:03.802Z,23.00
2022-11-28T12:14:35.047Z,29.50
2022-11-28T12:20:20.081Z,32.83
2022-11-28T12:26:02.180Z,28.83
2022-11-28T12:31:37.230Z,29.27
2022-11-28T12:36:56.646Z,30.77
2022-11-28T12:42:02.246Z,29.03
2022-11-28T12:47:48.747Z,28.73
2022-11-28T12:53:16.352Z,27.47
2022-11-28T12:58:27.014Z,23.87
2022-11-28T13:03:48.043Z,24.42
2022-11-28T13:09:11.853Z,24.67
2022-11-28T13:14:21.323Z,27.27
2022-11-28T13:19:57.857Z,23.77
2022-11-28T13:25:24.783Z,24.10
2022-11-28T13:30:33.361Z,16.63
2022-11-28T13:35:37.345Z,23.07
2022-11-28T13:41:28.465Z,18.70
2022-11-28T13:46:34.102Z,21.30
2022-11-28T13:51:37.459Z,18.67
2022-11-28T13:56:40.487Z,21.83
2022-11-28T14:01:50.631Z,28.67
2022-11-28T14:07:04.230Z,27.50
2022-11-28T14:12:44.292Z,26.60
2022-11-28T14:18:48.316Z,20.13
2022-11-28T14:23:51.747Z,21.53
2022-11-28T14:28:54.916Z,17.27
2022-11-28T14:34:26.118Z,27.17
2022-11-28T14:39:35.252Z,27.80
2022-11-28T14:44:57.193Z,26.63
2022-11-28T14:50:06.285Z,25.52
2022-11-28T14:55:12.352Z,25.93
2022-11-28T15:00:23.322Z,30.80
2022-11-28T15:06:10.531Z,32.65
2022-11-28T15:11:58.773Z,37.13
2022-11-28T15:17:05.912Z,27.23
2022-11-28T15:22:43.482Z,35.03
2022-11-28T15:27:46.426Z,28.37
2022-11-28T15:32:49.726Z,32.73
2022-11-28T15:37:58.282Z,28.50
2022-11-28T15:43:08.055Z,33.17
2022-11-28T15:48:50.749Z,34.67
2022-11-28T15:53:54.689Z,35.17
2022-11-28T15:58:57.626Z,38.03
2022-11-28T16:04:17.361Z,39.13
2022-11-28T16:09:20.174Z,33.30
2022-11-28T16:14:29.223Z,35.57
2022-11-28T16:19:36.522Z,37.43
2022-11-28T16:24:44.703Z,35.63
2022-11-28T16:29:47.743Z,33.27
2022-11-28T16:34:53.902Z,45.97
2022-11-28T16:40:19.302Z,39.03
2022-11-28T16:45:32.593Z,31.50
2022-11-28T16:50:37.028Z,37.00
2022-11-28T16:55:42.323Z,33.53
2022-11-28T17:01:02.431Z,45.37
2022-11-28T17:06:06.385Z,35.90
2022-11-28T17:11:09.989Z,48.10
2022-11-28T17:16:36.911Z,53.37
2022-11-28T17:21:46.007Z,47.97
2022-11-28T17:26:51.051Z,34.07
2022-11-28T17:31:57.192Z,38.17
2022-11-28T17:37:02.047Z,45.47
2022-11-28T17:42:06.202Z,32.67
2022-11-28T17:47:09.072Z,33.87
2022-11-28T17:52:12.093Z,39.70
2022-11-28T17:57:15.139Z,36.83
2022-11-28T18:02:17.979Z,44.77
2022-11-28T18:07:20.906Z,48.73
2022-11-28T18:12:23.821Z,50.97
2022-11-28T18:17:26.960Z,40.07
2022-11-28T18:22:29.848Z,38.00
2022-11-28T18:27:32.736Z,46.10
2022-11-28T18:32:35.717Z,38.00
2022-11-28T18:37:39.115Z,57.33
2022-11-28T18:42:42.554Z,38.37
2022-11-28T18:47:45.481Z,40.43
2022-11-28T18:52:48.564Z,40.00
2022-11-28T18:57:51.416Z,38.87
2022-11-28T19:02:55.054Z,40.80
2022-11-28T19:07:58.379Z,46.50
2022-11-28T19:13:01.273Z,36.10
2022-11-28T19:18:04.337Z,36.70
2022-11-28T19:23:07.214Z,40.17
2022-11-28T19:28:10.025Z,39.67
2022-11-28T19:33:12.898Z,42.33
2022-11-28T19:38:15.900Z,42.13
2022-11-28T19:43:18.827Z,38.27
2022-11-28T19:48:23.252Z,41.07
2022-11-28T19:53:28.440Z,32.77
2022-11-28T19:58:31.700Z,28.70
2022-11-28T20:03:36.075Z,34.90
2022-11-28T20:08:39.852Z,40.20
2022-11-28T20:13:44.187Z,32.33
2022-11-28T20:18:47.797Z,33.80
2022-11-28T20:23:54.807Z,37.27
2022-11-28T20:28:58.213Z,36.47
2022-11-28T20:34:02.070Z,43.40
2022-11-28T20:39:06.125Z,34.23
2022-11-28T20:44:10.027Z,42.63
2022-11-28T20:49:15.303Z,35.83
2022-11-28T20:54:19.353Z,36.00
2022-11-28T20:59:22.421Z,35.47
2022-11-28T21:04:25.377Z,22.80
2022-11-28T21:09:28.811Z,33.90
2022-11-28T21:14:31.717Z,39.73
2022-11-28T21:19:34.607Z,40.43
2022-11-28T21:24:37.608Z,39.63
2022-11-28T21:29:40.457Z,38.07
2022-11-28T21:34:43.373Z,28.77
2022-11-28T21:39:47.339Z,32.93
2022-11-28T21:44:50.198Z,37.17
2022-11-28T21:49:53.660Z,34.10
2022-11-28T21:54:56.525Z,40.97
2022-11-28T21:59:59.383Z,34.00
2022-11-28T22:05:02.272Z,31.10
2022-11-28T22:10:06.191Z,32.90
2022-11-28T22:15:09.795Z,29.73
2022-11-28T22:20:13.158Z,36.80
2022-11-28T22:25:16.168Z,31.27
2022-11-28T22:30:19.251Z,39.33
2022-11-28T22:35:22.211Z,33.57
2022-11-28T22:40:25.120Z,35.63
2022-11-28T22:45:28.129Z,40.43
2022-11-28T22:50:32.942Z,29.87
2022-11-28T22:55:38.953Z,35.50
2022-11-28T23:00:42.690Z,39.93
2022-11-28T23:05:49.219Z,31.83
2022-11-28T23:10:52.900Z,33.93
2022-11-28T23:15:55.809Z,29.70
2022-11-28T23:20:58.665Z,35.97
2022-11-28T23:26:10.268Z,37.03
2022-11-28T23:31:19.310Z,32.40
2022-11-28T23:36:44.115Z,31.67
2022-11-28T23:41:47.772Z,27.53
2022-11-28T23:46:50.657Z,30.27
2022-11-28T23:51:53.526Z,30.00
2022-11-28T23:56:56.641Z,25.50
